Time;durP1;ratioP1;P1;durP2;ratioP2;P2;SDS_P1;SDS_P2;PMS_P1;PMS_P2;Temp;Humidity;BMP_temperature;BMP_pressure;BME280_temperature;BME280_humidity;BME280_pressure;Samples;Min_cycle;Max_cycle;Signal;HPM_P1;HPM_P2
2021/04/10 00:00:50;;;;;;;4.35;1.80;;;14.80;81.60;;;;;;4981844;28;20497;-76
2021/04/10 00:03:16;;;;;;;5.15;2.20;;;12.50;79.50;;;;;;4976862;28;20035;-75
2021/04/10 00:05:42;;;;;;;4.88;1.70;;;15.20;80.90;;;;;;4988971;28;20046;-77
2021/04/10 00:08:08;;;;;;;4.97;1.73;;;;;;;;;;4992637;28;20034;-76
2021/04/10 00:10:34;;;;;;;3.95;1.95;;;12.50;78.50;;;;;;4987341;28;20073;-77
2021/04/10 00:13:00;;;;;;;5.90;2.00;;;13.90;80.10;;;;;;4983683;28;20058;-76
2021/04/10 00:15:28;;;;;;;10.70;2.05;;;12.50;79.10;;;;;;5003921;28;20124;-77
2021/04/10 00:17:54;;;;;;;7.75;1.75;;;12.50;78.40;;;;;;4990819;28;20054;-79
2021/04/10 00:20:21;;;;;;;5.93;1.95;;;11.80;78.40;;;;;;4991271;28;20645;-76
2021/04/10 00:22:50;;;;;;;5.90;1.90;;;12.50;79.10;;;;;;4993549;28;20035;-77
2021/04/10 00:25:16;;;;;;;5.05;1.65;;;14.20;79.70;;;;;;4987814;28;20038;-74
2021/04/10 00:27:42;;;;;;;6.13;2.03;;;12.50;78.90;;;;;;4986234;28;20026;-78
2021/04/10 00:30:11;;;;;;;6.13;2.17;;;12.50;79.00;;;;;;4983304;28;20022;-77
2021/04/10 00:32:38;;;;;;;6.10;1.80;;;12.60;79.00;;;;;;4992990;28;20034;-77
2021/04/10 00:35:07;;;;;;;7.15;1.80;;;13.80;79.60;;;;;;4975125;28;20501;-76
2021/04/10 00:37:35;;;;;;;5.55;2.05;;;12.60;78.90;;;;;;4981069;28;20409;-78
2021/04/10 00:40:06;;;;;;;5.32;1.80;;;12.60;79.60;;;;;;4986309;28;20041;-78
2021/04/10 00:42:32;;;;;;;9.32;1.95;;;12.60;79.40;;;;;;4988639;28;20114;-77
2021/04/10 00:44:58;;;;;;;4.25;1.80;;;12.70;80.10;;;;;;4983834;28;20117;-78
2021/04/10 00:47:23;;;;;;;7.25;2.05;;;12.70;80.80;;;;;;4980274;28;20029;-78
2021/04/10 00:49:49;;;;;;;5.72;2.13;;;;;;;;;;4990936;28;20030;-78
2021/04/10 00:52:17;;;;;;;5.05;2.25;;;12.70;80.20;;;;;;4987746;28;20034;-77
2021/04/10 00:54:44;;;;;;;7.38;2.53;;;13.00;81.00;;;;;;4971189;28;20038;-77
2021/04/10 00:57:15;;;;;;;4.72;1.67;;;12.30;80.80;;;;;;4988098;28;20057;-76
2021/04/10 00:59:42;;;;;;;5.65;2.13;;;12.70;81.50;;;;;;4987929;28;20042;-77
2021/04/10 01:02:08;;;;;;;4.05;1.80;;;12.60;81.80;;;;;;4977275;28;20034;-77
2021/04/10 01:04:34;;;;;;;4.05;1.80;;;;;;;;;;4974692;28;20644;-77
2021/04/10 01:07:01;;;;;;;3.42;2.00;;;12.70;81.90;;;;;;4973447;28;20030;-78
2021/04/10 01:09:27;;;;;;;3.67;1.80;;;14.50;83.90;;;;;;4981426;28;20084;-77
2021/04/10 01:12:17;;;;;;;5.28;1.83;;;15.00;84.20;;;;;;4974435;28;21043;-77
2021/04/10 01:15:02;;;;;;;5.60;2.08;;;12.50;83.20;;;;;;4974973;28;20138;-75
2021/04/10 01:17:34;;;;;;;4.95;2.20;;;12.50;83.70;;;;;;4981268;28;20125;-77
2021/04/10 01:20:14;;;;;;;7.78;2.80;;;12.50;84.00;;;;;;4978067;28;20164;-77
2021/04/10 01:22:40;;;;;;;;;;;12.60;84.00;;;;;;4974407;28;20026;-78
2021/04/10 01:25:09;;;;;;;4.72;1.77;;;14.30;85.20;;;;;;4974486;28;20387;-78
2021/04/10 01:27:37;;;;;;;4.40;1.90;;;13.80;85.20;;;;;;4982036;28;20030;-76
2021/04/10 01:30:13;;;;;;;5.68;2.60;;;13.60;85.40;;;;;;4976515;28;20024;-78
2021/04/10 01:33:01;;;;;;;6.40;2.60;;;12.50;85.10;;;;;;4990259;28;20401;-76
2021/04/10 01:35:37;;;;;;;8.23;1.85;;;12.40;85.50;;;;;;4978687;28;20035;-77
2021/04/10 01:38:07;;;;;;;4.32;1.83;;;12.40;85.70;;;;;;4971027;28;20081;-78
2021/04/10 01:40:34;;;;;;;5.85;2.10;;;12.40;85.90;;;;;;4988338;28;20038;-77
2021/04/10 01:43:02;;;;;;;8.13;2.13;;;12.40;86.30;;;;;;4970612;28;20034;-79
2021/04/10 01:45:29;;;;;;;7.40;2.58;;;12.50;88.10;;;;;;4976772;28;20449;-78
2021/04/10 01:47:57;;;;;;;6.35;2.10;;;12.50;89.60;;;;;;4985482;28;20034;-77
2021/04/10 01:50:24;;;;;;;6.57;2.20;;;13.70;90.90;;;;;;4985189;28;20477;-76
2021/04/10 01:52:51;;;;;;;5.82;2.40;;;12.20;93.10;;;;;;4977932;28;20077;-77
2021/04/10 01:55:17;;;;;;;7.43;2.17;;;12.20;93.40;;;;;;4988014;28;20030;-78
2021/04/10 01:57:43;;;;;;;6.30;2.25;;;12.00;94.20;;;;;;4984358;28;20034;-76
2021/04/10 02:00:10;;;;;;;7.47;2.75;;;12.20;94.40;;;;;;4985450;28;20031;-77
2021/04/10 02:02:41;;;;;;;6.00;2.72;;;11.90;95.60;;;;;;4991993;28;20045;-78
2021/04/10 02:05:11;;;;;;;8.25;2.63;;;11.80;96.50;;;;;;4988460;28;20034;-77
2021/04/10 02:07:40;;;;;;;5.95;3.00;;;11.80;96.70;;;;;;4992246;28;20026;-77
2021/04/10 02:10:07;;;;;;;9.32;2.53;;;11.60;97.50;;;;;;4990677;28;20030;-77
2021/04/10 02:12:33;;;;;;;6.20;2.80;;;11.80;97.70;;;;;;4989896;28;20049;-79
2021/04/10 02:15:00;;;;;;;9.48;2.88;;;11.70;98.40;;;;;;4992012;28;20057;-76
2021/04/10 02:17:30;;;;;;;11.27;3.08;;;11.50;98.60;;;;;;4987584;28;20030;-76
2021/04/10 02:19:56;;;;;;;5.72;2.63;;;11.40;99.30;;;;;;4989670;28;20096;-78
2021/04/10 02:22:23;;;;;;;5.93;2.47;;;11.50;99.60;;;;;;4985846;28;20489;-77
2021/04/10 02:24:49;;;;;;;10.13;2.90;;;12.20;99.90;;;;;;4989352;28;20081;-77
2021/04/10 02:27:15;;;;;;;6.05;2.75;;;11.40;99.80;;;;;;4995831;28;20031;-78
2021/04/10 02:29:42;;;;;;;6.75;2.35;;;11.40;99.90;;;;;;4995982;28;20109;-77
2021/04/10 02:32:09;;;;;;;8.38;2.60;;;12.20;99.90;;;;;;4990039;28;20018;-76
2021/04/10 02:34:46;;;;;;;7.25;2.97;;;11.40;99.90;;;;;;4996651;28;20038;-76
2021/04/10 02:37:13;;;;;;;5.10;2.80;;;11.40;99.90;;;;;;4995757;28;20059;-78
2021/04/10 02:39:43;;;;;;;3.75;2.30;;;11.30;99.90;;;;;;4995184;28;20035;-78
2021/04/10 02:42:10;;;;;;;6.97;2.63;;;11.40;99.90;;;;;;4995684;28;20052;-78
2021/04/10 02:44:40;;;;;;;7.97;2.80;;;11.30;99.90;;;;;;4993704;28;20038;-78
2021/04/10 02:47:07;;;;;;;4.70;2.50;;;11.30;99.90;;;;;;4994413;28;20034;-78
2021/04/10 02:49:38;;;;;;;7.68;2.95;;;11.30;99.90;;;;;;4995161;28;20110;-78
2021/04/10 02:52:06;;;;;;;5.97;3.28;;;11.40;99.90;;;;;;4996931;28;20452;-78
2021/04/10 02:54:36;;;;;;;7.47;2.83;;;11.40;99.90;;;;;;4997798;28;20033;-77
2021/04/10 02:57:12;;;;;;;4.70;2.35;;;11.40;99.90;;;;;;4990589;28;20034;-78
2021/04/10 02:59:45;;;;;;;8.82;2.80;;;11.50;99.90;;;;;;4994495;28;20045;-78
2021/04/10 03:02:13;;;;;;;6.72;3.13;;;11.50;99.90;;;;;;4993789;28;20061;-80
2021/04/10 03:04:47;;;;;;;7.15;2.25;;;11.40;99.90;;;;;;4991449;28;20042;-78
2021/04/10 03:07:14;;;;;;;5.68;2.63;;;11.60;99.90;;;;;;4996436;28;20031;-78
2021/04/10 03:09:46;;;;;;;5.25;2.20;;;11.50;99.90;;;;;;4996433;28;20374;-77
2021/04/10 03:12:13;;;;;;;8.18;2.85;;;11.50;99.90;;;;;;4992433;28;20514;-78
2021/04/10 03:14:40;;;;;;;7.22;2.58;;;11.40;99.90;;;;;;4992410;28;20065;-78
2021/04/10 03:17:07;;;;;;;6.57;2.95;;;11.30;99.90;;;;;;4993541;28;20078;-77
2021/04/10 03:19:35;;;;;;;6.75;2.60;;;11.30;99.90;;;;;;4994737;28;20033;-77
2021/04/10 03:22:01;;;;;;;9.07;2.65;;;11.30;99.90;;;;;;4993462;28;20110;-77
2021/04/10 03:24:26;;;;;;;6.05;2.90;;;11.30;99.90;;;;;;4997549;28;20042;-78
2021/04/10 03:26:53;;;;;;;8.50;3.30;;;11.20;99.90;;;;;;4992822;28;20030;-75
2021/04/10 03:29:19;;;;;;;4.95;2.67;;;11.10;99.90;;;;;;4992486;28;20022;-78
2021/04/10 03:31:47;;;;;;;8.02;2.70;;;11.10;99.90;;;;;;4992461;28;20030;-79
2021/04/10 03:34:13;;;;;;;6.32;2.85;;;11.10;99.90;;;;;;4994747;28;20061;-77
2021/04/10 03:36:39;;;;;;;8.48;3.22;;;11.00;99.90;;;;;;4996664;28;20022;-76
2021/04/10 03:39:05;;;;;;;6.60;3.03;;;11.00;99.90;;;;;;4994907;28;20053;-78
2021/04/10 03:41:30;;;;;;;6.38;3.00;;;11.00;99.90;;;;;;4993015;28;20484;-77
2021/04/10 03:43:56;;;;;;;9.55;3.15;;;11.00;99.90;;;;;;4990858;28;20026;-76
2021/04/10 03:46:21;;;;;;;5.32;2.80;;;10.90;99.90;;;;;;4992053;28;20105;-76
2021/04/10 03:48:47;;;;;;;4.85;3.03;;;10.90;99.90;;;;;;4995762;28;20034;-78
2021/04/10 03:51:13;;;;;;;6.78;2.58;;;10.90;99.90;;;;;;4994919;28;20118;-78
2021/04/10 03:53:39;;;;;;;7.38;2.90;;;10.90;99.90;;;;;;4995553;28;20045;-77
2021/04/10 03:56:05;;;;;;;5.93;2.97;;;10.90;99.90;;;;;;4994250;28;20026;-80
2021/04/10 03:58:31;;;;;;;5.70;2.60;;;10.80;99.90;;;;;;4991311;28;20030;-79
2021/04/10 04:00:56;;;;;;;4.28;2.60;;;10.90;99.90;;;;;;4987837;28;20034;-78
2021/04/10 04:03:22;;;;;;;7.00;2.72;;;10.90;99.90;;;;;;4986129;28;20058;-79
2021/04/10 04:05:47;;;;;;;7.53;2.97;;;10.70;99.90;;;;;;4993365;28;20094;-77
2021/04/10 04:08:13;;;;;;;5.22;3.20;;;10.60;99.90;;;;;;4992879;28;20433;-78
2021/04/10 04:10:41;;;;;;;6.63;2.90;;;10.60;99.90;;;;;;4993273;28;20037;-77
2021/04/10 04:13:09;;;;;;;9.32;3.38;;;10.50;99.90;;;;;;4994490;28;20500;-78
2021/04/10 04:15:34;;;;;;;6.55;3.20;;;10.50;99.90;;;;;;4985932;28;20034;-76
2021/04/10 04:18:00;;;;;;;6.00;3.33;;;10.50;99.90;;;;;;4992163;28;20034;-77
2021/04/10 04:20:25;;;;;;;6.75;3.50;;;10.40;99.90;;;;;;4990635;28;20045;-78
2021/04/10 04:22:52;;;;;;;7.93;3.22;;;10.90;99.90;;;;;;4994044;28;20117;-79
2021/04/10 04:25:17;;;;;;;8.73;3.50;;;10.30;99.90;;;;;;4991698;28;20033;-79
2021/04/10 04:27:43;;;;;;;7.22;3.28;;;10.20;99.90;;;;;;4990404;28;20035;-79
2021/04/10 04:30:10;;;;;;;7.40;2.85;;;10.30;99.90;;;;;;4997214;28;20049;-78
2021/04/10 04:32:36;;;;;;;6.63;2.90;;;10.30;99.90;;;;;;4988913;28;20026;-77
2021/04/10 04:35:02;;;;;;;6.78;3.10;;;10.20;99.90;;;;;;4995535;28;20443;-78
2021/04/10 04:37:27;;;;;;;7.53;2.85;;;10.10;99.90;;;;;;4990925;28;20029;-77
2021/04/10 04:39:53;;;;;;;5.82;2.90;;;10.00;99.90;;;;;;4991753;28;20499;-79
2021/04/10 04:42:18;;;;;;;5.70;3.10;;;9.90;99.90;;;;;;4988948;28;20097;-80
2021/04/10 04:44:44;;;;;;;8.10;3.00;;;9.80;99.90;;;;;;4994040;28;20026;-80
2021/04/10 04:47:10;;;;;;;6.20;2.85;;;9.80;99.90;;;;;;4992303;28;20105;-80
2021/04/10 04:49:37;;;;;;;8.55;3.20;;;11.50;99.90;;;;;;4992793;28;20459;-77
2021/04/10 04:52:03;;;;;;;6.63;2.95;;;9.80;99.90;;;;;;4988549;28;20033;-79
2021/04/10 04:54:29;;;;;;;6.22;2.50;;;9.70;99.90;;;;;;4993403;28;20023;-78
2021/04/10 04:56:55;;;;;;;8.15;2.80;;;;;;;;;;4988622;28;20041;-81
2021/04/10 04:59:21;;;;;;;6.85;2.55;;;;;;;;;;4989348;28;20046;-77
2021/04/10 05:01:47;;;;;;;5.72;2.38;;;;;;;;;;5008607;28;20048;-79
2021/04/10 05:04:13;;;;;;;8.70;2.42;;;;;;;;;;4991717;28;20031;-81
2021/04/10 05:06:42;;;;;;;5.47;2.20;;;9.50;99.90;;;;;;4993726;28;20094;-82
2021/04/10 05:09:08;;;;;;;5.72;2.17;;;;;;;;;;4988696;28;20034;-81
2021/04/10 05:11:34;;;;;;;7.50;2.13;;;9.50;99.90;;;;;;4989052;28;20049;-76
2021/04/10 05:14:00;;;;;;;7.63;2.00;;;11.50;99.90;;;;;;4988689;28;20038;-78
2021/04/10 05:16:25;;;;;;;6.13;2.00;;;9.40;99.90;;;;;;4988877;28;20117;-78
2021/04/10 05:18:51;;;;;;;7.43;2.30;;;9.40;99.90;;;;;;4985862;28;20037;-80
2021/04/10 05:21:17;;;;;;;3.85;2.22;;;;;;;;;;5000202;28;20026;-78
2021/04/10 05:23:42;;;;;;;5.18;2.20;;;9.50;99.90;;;;;;4989167;28;20129;-80
2021/04/10 05:26:08;;;;;;;4.28;2.22;;;12.60;99.90;;;;;;4984060;28;20041;-80
2021/04/10 05:28:34;;;;;;;6.18;2.20;;;;;;;;;;4988781;28;20031;-79
2021/04/10 05:31:01;;;;;;;5.03;2.10;;;;;;;;;;4993746;28;20030;-79
2021/04/10 05:33:28;;;;;;;4.72;1.95;;;9.20;99.90;;;;;;4996854;28;20026;-79
2021/04/10 05:35:54;;;;;;;6.38;2.72;;;9.50;99.90;;;;;;4996952;28;20037;-81
2021/04/10 05:38:19;;;;;;;3.38;1.83;;;9.20;99.90;;;;;;4998007;28;20408;-81
2021/04/10 05:40:45;;;;;;;5.13;2.35;;;;;;;;;;4994679;28;20049;-80
2021/04/10 05:43:11;;;;;;;4.03;1.48;;;9.20;99.90;;;;;;4994477;28;20034;-79
2021/04/10 05:45:37;;;;;;;4.05;1.88;;;10.80;99.90;;;;;;4994041;28;20037;-80
2021/04/10 05:48:02;;;;;;;6.15;1.73;;;9.10;99.90;;;;;;4997414;28;20069;-80
2021/04/10 05:50:28;;;;;;;4.43;1.70;;;;;;;;;;4990118;28;20027;-80
2021/04/10 05:52:55;;;;;;;5.15;1.52;;;9.10;99.90;;;;;;5009104;28;21037;-78
2021/04/10 05:55:20;;;;;;;6.38;1.80;;;9.10;99.90;;;;;;4992125;28;20042;-82
2021/04/10 05:57:46;;;;;;;6.07;1.67;;;;;;;;;;4989654;28;20550;-81
2021/04/10 06:00:13;;;;;;;3.67;1.60;;;9.20;99.90;;;;;;4992461;28;20367;-80
2021/04/10 06:02:39;;;;;;;4.93;2.03;;;;;;;;;;4992660;28;20169;-78
2021/04/10 06:05:07;;;;;;;3.15;1.48;;;9.30;99.90;;;;;;4991172;28;20052;-83
2021/04/10 06:07:33;;;;;;;3.45;1.60;;;9.40;99.90;;;;;;4989774;28;21390;-79
2021/04/10 06:09:59;;;;;;;3.72;1.30;;;10.20;99.90;;;;;;4987339;28;20051;-77
2021/04/10 06:12:24;;;;;;;3.80;1.42;;;10.30;99.90;;;;;;4991771;28;20062;-78
2021/04/10 06:14:50;;;;;;;3.83;1.40;;;;;;;;;;4985850;28;20445;-78
2021/04/10 06:17:16;;;;;;;14.35;4.38;;;;;;;;;;4992012;28;20628;-79
2021/04/10 06:19:42;;;;;;;2.38;1.20;;;9.60;99.90;;;;;;4992524;28;20035;-79
2021/04/10 06:22:08;;;;;;;3.53;1.35;;;9.60;99.30;;;;;;4990473;28;20066;-80
2021/04/10 06:24:34;;;;;;;4.70;1.30;;;;;;;;;;5008348;28;20026;-81
2021/04/10 06:27:02;;;;;;;3.63;1.48;;;9.70;99.60;;;;;;4993669;28;20121;-81
2021/04/10 06:29:28;;;;;;;4.88;1.60;;;;;;;;;;4993935;28;20034;-78
2021/04/10 06:31:56;;;;;;;3.92;1.50;;;9.70;98.80;;;;;;4991690;28;20038;-77
2021/04/10 06:34:24;;;;;;;4.30;1.92;;;10.10;99.30;;;;;;5006834;28;20053;-81
2021/04/10 06:36:49;;;;;;;4.63;1.50;;;9.80;99.40;;;;;;4994352;28;20026;-78
2021/04/10 06:39:15;;;;;;;4.95;1.35;;;;;;;;;;4983347;28;21096;-79
2021/04/10 06:41:41;;;;;;;3.30;1.30;;;9.70;98.80;;;;;;4978554;28;20053;-78
2021/04/10 06:44:08;;;;;;;3.10;1.42;;;11.10;99.70;;;;;;4988486;28;20034;-78
2021/04/10 06:46:34;;;;;;;2.85;1.45;;;;;;;;;;4981090;28;20065;-78
2021/04/10 06:49:02;;;;;;;5.13;1.80;;;9.80;99.20;;;;;;4978512;28;20022;-81
2021/04/10 06:51:30;;;;;;;6.40;1.67;;;9.70;99.40;;;;;;4979559;28;20030;-79
2021/04/10 06:53:57;;;;;;;4.95;1.63;;;9.90;99.20;;;;;;4989285;28;20030;-77
2021/04/10 06:56:31;;;;;;;3.00;1.55;;;9.90;99.30;;;;;;4982018;28;20077;-76
2021/04/10 06:59:16;;;;;;;4.78;1.63;;;9.90;99.20;;;;;;4991767;28;20054;-78
2021/04/10 07:01:43;;;;;;;3.65;1.52;;;9.90;99.60;;;;;;4989948;28;20026;-80
2021/04/10 07:04:11;;;;;;;5.40;1.77;;;10.00;99.50;;;;;;4991538;28;20030;-81
2021/04/10 07:06:38;;;;;;;4.28;1.50;;;10.00;99.80;;;;;;4994377;28;20027;-80
2021/04/10 07:09:07;;;;;;;4.75;1.80;;;10.00;99.80;;;;;;4996175;28;20041;-81
2021/04/10 07:11:33;;;;;;;5.13;1.65;;;10.00;99.60;;;;;;4990255;28;20030;-83
2021/04/10 07:14:00;;;;;;;3.97;1.50;;;10.00;99.00;;;;;;4994860;28;20030;-80
2021/04/10 07:16:26;;;;;;;4.00;1.65;;;11.60;99.70;;;;;;4986602;28;20038;-80
2021/04/10 07:18:55;;;;;;;4.13;1.70;;;;;;;;;;4982026;28;20126;-82
2021/04/10 07:21:23;;;;;;;6.93;1.40;;;9.90;99.50;;;;;;4983255;28;20400;-82
2021/04/10 07:23:54;;;;;;;7.22;1.60;;;9.90;99.60;;;;;;4987215;28;20047;-81
2021/04/10 07:26:42;;;;;;;3.70;1.70;;;9.90;99.80;;;;;;4985035;28;20046;-80
2021/04/10 07:29:30;;;;;;;3.88;1.35;;;9.80;99.30;;;;;;5000452;28;20030;-81
2021/04/10 07:31:57;;;;;;;3.22;1.50;;;9.90;99.40;;;;;;4980163;28;20034;-78
2021/04/10 07:34:23;;;;;;;6.45;2.05;;;9.80;99.50;;;;;;4976263;28;20284;-80
2021/04/10 07:37:02;;;;;;;4.15;1.70;;;9.80;99.80;;;;;;4973195;28;20048;-79
2021/04/10 07:39:28;;;;;;;3.03;1.70;;;9.90;99.80;;;;;;4978592;28;20049;-76
2021/04/10 07:42:02;;;;;;;4.43;1.90;;;10.70;99.90;;;;;;4995339;28;20069;-79
2021/04/10 07:44:39;;;;;;;2.55;1.73;;;9.90;99.70;;;;;;4990522;28;20481;-80
2021/04/10 07:47:06;;;;;;;4.60;1.42;;;9.90;99.60;;;;;;4977542;28;20106;-78
2021/04/10 07:49:32;;;;;;;2.97;1.70;;;;;;;;;;4986622;28;20536;-79
2021/04/10 07:52:03;;;;;;;3.42;1.77;;;9.90;99.60;;;;;;5003128;28;20030;-82
2021/04/10 07:54:33;;;;;;;;;;;12.00;99.90;;;;;;4986151;28;20034;-80
2021/04/10 07:57:10;;;;;;;2.97;1.42;;;9.80;99.60;;;;;;4991212;28;19909;-78
2021/04/10 07:59:56;;;;;;;6.00;1.55;;;9.90;99.30;;;;;;4980931;28;20057;-79
2021/04/10 08:02:24;;;;;;;4.97;1.95;;;9.90;99.20;;;;;;4990659;28;20039;-81
2021/04/10 08:04:58;;;;;;;5.15;1.88;;;11.40;99.90;;;;;;4991493;28;20448;-77
2021/04/10 08:07:25;;;;;;;4.30;1.70;;;11.90;99.90;;;;;;4982161;28;20062;-80
2021/04/10 08:10:03;;;;;;;5.68;1.48;;;12.20;99.60;;;;;;4992630;28;20031;-82
2021/04/10 08:12:31;;;;;;;2.40;1.50;;;10.00;98.80;;;;;;4991876;28;20031;-82
2021/04/10 08:14:57;;;;;;;4.93;1.42;;;10.20;99.00;;;;;;4994626;28;20041;-80
2021/04/10 08:17:37;;;;;;;2.60;1.40;;;10.00;98.60;;;;;;4997032;28;20042;-80
2021/04/10 08:20:27;;;;;;;3.10;1.45;;;10.00;98.60;;;;;;5004134;28;20038;-82
2021/04/10 08:23:13;;;;;;;4.00;1.53;;;10.00;98.90;;;;;;4982311;28;20113;-81
2021/04/10 08:25:39;;;;;;;2.80;1.50;;;10.10;98.80;;;;;;4979586;28;20415;-78
2021/04/10 08:28:05;;;;;;;4.07;1.50;;;;;;;;;;4992484;28;20037;-77
2021/04/10 08:30:31;;;;;;;4.13;1.95;;;;;;;;;;4983132;28;20027;-78
2021/04/10 08:32:57;;;;;;;5.25;1.77;;;10.00;98.50;;;;;;4971378;28;20175;-78
2021/04/10 08:35:23;;;;;;;3.08;1.42;;;10.10;98.50;;;;;;4972249;28;20090;-78
2021/04/10 08:37:56;;;;;;;5.32;1.73;;;10.10;98.30;;;;;;4983831;28;20122;-77
2021/04/10 08:40:23;;;;;;;4.25;1.60;;;10.00;98.20;;;;;;4987674;28;20555;-76
2021/04/10 08:42:50;;;;;;;2.70;1.60;;;10.00;98.50;;;;;;4982645;28;20038;-75
2021/04/10 08:45:16;;;;;;;1.95;1.20;;;10.00;98.20;;;;;;4987654;28;20052;-76
2021/04/10 08:47:43;;;;;;;6.32;1.55;;;9.90;98.70;;;;;;4988031;28;20034;-76
2021/04/10 08:50:18;;;;;;;5.45;1.52;;;11.90;98.70;;;;;;4986577;28;20027;-77
2021/04/10 08:52:44;;;;;;;3.42;1.50;;;10.00;98.60;;;;;;4982214;28;20039;-78
2021/04/10 08:55:12;;;;;;;3.53;1.50;;;10.00;98.40;;;;;;4984884;28;20048;-78
2021/04/10 08:57:40;;;;;;;2.85;1.50;;;10.10;98.30;;;;;;4983904;28;20058;-78
2021/04/10 09:00:28;;;;;;;3.70;1.45;;;10.60;98.40;;;;;;4986982;28;20069;-78
2021/04/10 09:02:59;;;;;;;5.07;1.40;;;10.00;98.20;;;;;;4982846;28;20142;-78
2021/04/10 09:05:45;;;;;;;3.30;1.40;;;10.20;98.00;;;;;;4989639;28;20023;-79
2021/04/10 09:08:23;;;;;;;1.65;1.20;;;10.40;97.90;;;;;;4987567;28;20059;-76
2021/04/10 09:10:49;;;;;;;2.05;1.35;;;10.40;97.60;;;;;;4977210;28;20037;-78
2021/04/10 09:13:19;;;;;;;5.18;1.63;;;10.20;97.80;;;;;;4983897;28;20018;-77
2021/04/10 09:15:45;;;;;;;3.95;1.85;;;10.50;98.30;;;;;;4986338;28;20022;-78
2021/04/10 09:18:13;;;;;;;4.32;1.85;;;10.30;98.30;;;;;;4982579;28;20081;-80
2021/04/10 09:20:44;;;;;;;4.05;1.80;;;11.70;98.70;;;;;;4981906;28;20141;-77
2021/04/10 09:23:37;;;;;;;3.38;1.50;;;10.30;98.30;;;;;;4985865;28;20030;-79
2021/04/10 09:26:16;;;;;;;3.45;1.40;;;10.30;98.30;;;;;;4985631;28;20034;-78
2021/04/10 09:28:54;;;;;;;2.72;1.60;;;10.40;98.50;;;;;;4982571;28;20064;-79
2021/04/10 09:31:44;;;;;;;2.67;1.42;;;11.10;99.10;;;;;;4995321;28;20018;-79
2021/04/10 09:34:41;;;;;;;6.22;1.92;;;10.30;98.90;;;;;;4983293;28;20037;-78
2021/04/10 09:37:06;;;;;;;4.70;1.80;;;10.30;98.90;;;;;;4982258;28;20049;-76
2021/04/10 09:39:56;;;;;;;3.78;1.83;;;10.30;99.30;;;;;;4983794;28;20420;-76
2021/04/10 09:45:11;;;;;;;;;;;10.30;99.40;;;;;;4972304;28;22217;-76
2021/04/10 09:48:10;;;;;;;4.82;1.55;;;10.30;99.90;;;;;;4969822;28;19914;-75
2021/04/10 09:50:42;;;;;;;4.63;2.28;;;10.20;99.50;;;;;;4959568;28;20041;-76
2021/04/10 09:53:09;;;;;;;6.72;2.08;;;10.20;99.90;;;;;;4985238;28;20026;-74
2021/04/10 09:55:36;;;;;;;4.80;1.80;;;11.40;99.90;;;;;;4967448;28;20803;-74
2021/04/10 09:58:05;;;;;;;4.03;1.63;;;10.30;99.70;;;;;;4970271;28;20035;-75
2021/04/10 10:00:31;;;;;;;4.38;1.55;;;10.30;99.70;;;;;;4970050;28;20398;-78
2021/04/10 10:02:59;;;;;;;3.58;1.33;;;10.40;99.70;;;;;;4973076;28;20455;-77
2021/04/10 10:05:49;;;;;;;3.22;1.45;;;10.70;99.60;;;;;;4971243;28;20039;-75
2021/04/10 10:08:28;;;;;;;2.20;1.58;;;10.30;99.60;;;;;;4974816;28;20540;-75
2021/04/10 10:11:07;;;;;;;3.28;1.45;;;10.40;99.70;;;;;;4989456;28;20077;-77
2021/04/10 10:13:34;;;;;;;4.55;1.80;;;10.40;99.60;;;;;;4980302;28;20545;-77
2021/04/10 10:16:00;;;;;;;5.18;2.47;;;11.40;99.90;;;;;;4982604;28;20029;-76
2021/04/10 10:18:31;;;;;;;2.15;1.30;;;10.50;99.80;;;;;;4992515;28;20022;-79
2021/04/10 10:20:58;;;;;;;4.68;1.70;;;11.60;99.90;;;;;;4980553;28;20128;-76
2021/04/10 10:23:27;;;;;;;3.30;1.77;;;10.50;99.60;;;;;;4986757;28;20525;-80
2021/04/10 10:26:05;;;;;;;4.72;1.30;;;10.60;99.40;;;;;;4977432;28;20093;-76
2021/04/10 10:28:32;;;;;;;3.38;1.40;;;10.70;99.40;;;;;;4979162;28;20026;-75
2021/04/10 10:31:03;;;;;;;3.47;1.40;;;10.50;99.20;;;;;;4981749;28;20022;-78
2021/04/10 10:33:29;;;;;;;4.50;2.05;;;10.50;99.30;;;;;;4989721;28;20398;-78
2021/04/10 10:35:54;;;;;;;5.03;1.45;;;12.00;99.90;;;;;;4982040;28;20038;-76
2021/04/10 10:38:20;;;;;;;4.25;1.30;;;10.60;99.30;;;;;;4985595;28;20034;-76
2021/04/10 10:40:48;;;;;;;3.10;1.45;;;11.40;99.10;;;;;;4990316;28;20030;-75
2021/04/10 10:43:15;;;;;;;5.05;1.50;;;10.50;99.00;;;;;;4983805;28;21582;-75
2021/04/10 10:45:45;;;;;;;4.60;1.42;;;10.40;99.20;;;;;;4982758;28;20023;-77
2021/04/10 10:48:31;;;;;;;3.80;1.73;;;10.40;99.50;;;;;;4989001;28;20125;-78
2021/04/10 10:51:00;;;;;;;3.30;1.65;;;10.40;99.30;;;;;;4998469;28;20300;-76
2021/04/10 10:53:44;;;;;;;5.70;1.75;;;10.60;98.70;;;;;;4991741;28;20030;-80
2021/04/10 10:56:10;;;;;;;5.80;1.55;;;10.50;98.40;;;;;;4985279;28;20082;-79
2021/04/10 10:58:40;;;;;;;2.90;1.30;;;10.50;99.00;;;;;;5003466;28;20041;-76
2021/04/10 11:01:30;;;;;;;6.22;2.95;;;10.50;98.40;;;;;;4971816;28;20311;-77
2021/04/10 11:04:04;;;;;;;6.40;1.63;;;10.50;98.60;;;;;;4992283;28;20403;-77
2021/04/10 11:06:33;;;;;;;6.53;1.70;;;10.50;98.40;;;;;;5006638;28;20405;-78
2021/04/10 11:09:02;;;;;;;4.47;1.60;;;10.40;98.20;;;;;;4987748;28;20026;-78
2021/04/10 11:11:40;;;;;;;3.70;1.70;;;12.30;98.30;;;;;;4991724;28;20065;-74
2021/04/10 11:14:08;;;;;;;4.15;2.53;;;12.00;98.20;;;;;;4992467;28;20060;-75
2021/04/10 11:16:44;;;;;;;4.40;1.67;;;11.40;97.50;;;;;;4994149;28;20030;-76
2021/04/10 11:19:10;;;;;;;4.32;1.70;;;10.80;97.20;;;;;;4987238;28;20034;-78
2021/04/10 11:21:35;;;;;;;5.18;1.98;;;12.90;97.00;;;;;;4985815;28;20058;-76
2021/04/10 11:24:10;;;;;;;3.40;1.15;;;10.80;96.00;;;;;;4985088;28;20079;-75
2021/04/10 11:26:40;;;;;;;4.47;1.98;;;10.70;96.30;;;;;;4976437;28;20034;-76
2021/04/10 11:29:28;;;;;;;4.13;1.88;;;10.70;96.50;;;;;;4991640;28;20038;-77
2021/04/10 11:32:10;;;;;;;2.70;1.20;;;10.70;96.50;;;;;;4992254;28;20105;-77
2021/04/10 11:34:38;;;;;;;5.63;1.55;;;10.80;95.90;;;;;;4989040;28;20113;-78
2021/04/10 11:37:05;;;;;;;3.65;1.65;;;11.90;96.40;;;;;;4990415;28;20042;-75
2021/04/10 11:39:31;;;;;;;2.85;1.30;;;10.90;96.20;;;;;;4987282;28;20448;-79
2021/04/10 11:41:59;;;;;;;5.30;1.55;;;12.30;95.80;;;;;;4991141;28;20026;-77
2021/04/10 11:44:36;;;;;;;4.07;1.92;;;11.10;94.40;;;;;;4984476;28;20035;-77
2021/04/10 11:47:02;;;;;;;2.70;1.40;;;11.00;94.40;;;;;;4986735;28;20019;-79
2021/04/10 11:49:29;;;;;;;5.57;1.90;;;11.00;95.10;;;;;;4986566;28;20027;-75
2021/04/10 11:52:07;;;;;;;2.92;1.88;;;11.60;95.30;;;;;;4990184;28;20571;-77
2021/04/10 11:54:33;;;;;;;2.97;1.30;;;13.20;95.50;;;;;;4987581;28;20033;-81
2021/04/10 11:56:59;;;;;;;3.67;1.60;;;12.70;94.60;;;;;;4991618;28;20081;-80
2021/04/10 11:59:36;;;;;;;3.90;1.30;;;11.10;93.60;;;;;;4992512;28;20030;-78
2021/04/10 12:02:03;;;;;;;3.53;1.60;;;11.20;93.20;;;;;;4996187;28;20039;-78
2021/04/10 12:04:31;;;;;;;2.30;1.40;;;11.20;93.30;;;;;;4990856;28;20038;-77
2021/04/10 12:07:08;;;;;;;5.18;1.90;;;11.30;93.30;;;;;;4984795;28;20059;-76
2021/04/10 12:09:37;;;;;;;4.55;1.67;;;11.30;92.20;;;;;;4982661;28;20453;-78
2021/04/10 12:12:04;;;;;;;5.05;1.90;;;11.30;92.00;;;;;;4982786;28;21598;-76
2021/04/10 12:14:30;;;;;;;4.68;1.45;;;11.40;92.10;;;;;;4989708;28;20042;-77
2021/04/10 12:16:56;;;;;;;3.28;1.50;;;11.50;92.10;;;;;;4985711;28;20026;-77
2021/04/10 12:19:22;;;;;;;3.63;1.50;;;11.60;91.90;;;;;;4985177;28;20563;-77
2021/04/10 12:21:49;;;;;;;3.75;1.40;;;11.60;91.00;;;;;;4985751;28;20060;-75
2021/04/10 12:24:14;;;;;;;4.28;1.50;;;11.80;90.20;;;;;;4992059;28;20039;-79
2021/04/10 12:26:40;;;;;;;3.85;1.58;;;11.90;89.10;;;;;;4988556;28;20385;-77
2021/04/10 12:29:06;;;;;;;5.75;1.52;;;12.10;88.70;;;;;;4988658;28;20109;-78
2021/04/10 12:31:32;;;;;;;3.08;1.45;;;12.00;88.70;;;;;;4986161;28;20030;-78
2021/04/10 12:33:58;;;;;;;3.78;1.55;;;12.10;88.50;;;;;;4986825;28;20030;-76
2021/04/10 12:36:23;;;;;;;7.07;1.90;;;12.10;88.40;;;;;;4992135;28;20018;-78
2021/04/10 12:38:50;;;;;;;3.15;1.52;;;12.00;88.80;;;;;;4990972;28;20038;-78
2021/04/10 12:41:16;;;;;;;3.55;1.55;;;11.90;89.60;;;;;;4992414;28;20022;-78
2021/04/10 12:43:42;;;;;;;3.92;1.33;;;11.90;90.10;;;;;;4992057;28;20030;-77
2021/04/10 12:46:09;;;;;;;4.63;1.73;;;12.00;89.90;;;;;;4994833;28;20029;-78
2021/04/10 12:48:35;;;;;;;3.72;1.65;;;12.00;90.40;;;;;;4994185;28;20385;-75
2021/04/10 12:51:01;;;;;;;3.45;1.60;;;12.20;90.70;;;;;;4989761;28;20030;-77
2021/04/10 12:53:26;;;;;;;4.03;1.92;;;12.10;90.90;;;;;;4992583;28;20038;-77
2021/04/10 12:55:52;;;;;;;3.75;1.63;;;12.10;90.90;;;;;;4993645;28;20027;-77
2021/04/10 12:58:20;;;;;;;3.97;1.70;;;11.90;90.90;;;;;;4992730;28;20033;-77
2021/04/10 13:00:46;;;;;;;5.15;1.45;;;12.00;91.10;;;;;;4988791;28;20033;-76
2021/04/10 13:03:12;;;;;;;3.55;1.85;;;12.00;91.00;;;;;;4980354;28;20127;-77
2021/04/10 13:05:38;;;;;;;3.78;1.60;;;12.30;91.30;;;;;;4981275;28;20038;-75
2021/04/10 13:08:03;;;;;;;5.40;1.60;;;11.70;91.60;;;;;;4985194;28;20023;-77
2021/04/10 13:10:29;;;;;;;3.92;1.80;;;11.70;91.80;;;;;;4992781;28;20019;-77